createdAt,value
2022-09-14T00:03:26.357Z,3.65
2022-09-14T00:08:20.040Z,2.45
2022-09-14T00:13:15.161Z,4.28
2022-09-14T00:18:15.959Z,4.07
2022-09-14T00:23:09.146Z,4.88
2022-09-14T00:28:03.238Z,4.93
2022-09-14T00:32:57.252Z,2.58
2022-09-14T00:37:51.831Z,3.53
2022-09-14T00:42:46.308Z,1.88
2022-09-14T00:47:39.801Z,3.05
2022-09-14T00:52:36.448Z,3.95
2022-09-14T00:57:35.577Z,3.17
2022-09-14T01:02:29.542Z,2.00
2022-09-14T01:07:34.752Z,3.42
2022-09-14T01:12:40.480Z,4.07
2022-09-14T01:17:51.424Z,5.72
2022-09-14T01:23:06.260Z,2.45
2022-09-14T01:28:07.244Z,6.47
2022-09-14T01:33:13.751Z,3.92
2022-09-14T01:38:23.751Z,5.60
2022-09-14T01:43:41.848Z,7.13
2022-09-14T01:48:47.232Z,5.10
2022-09-14T01:53:49.384Z,4.18
2022-09-14T01:58:51.092Z,4.07
2022-09-14T02:03:50.752Z,3.97
2022-09-14T02:08:45.179Z,2.97
2022-09-14T02:13:39.429Z,3.30
2022-09-14T02:18:33.587Z,5.10
2022-09-14T02:23:27.065Z,3.28
2022-09-14T02:28:24.281Z,3.88
2022-09-14T02:33:41.394Z,3.45
2022-09-14T02:38:56.819Z,6.35
2022-09-14T02:43:54.508Z,3.38
2022-09-14T02:49:18.741Z,3.60
2022-09-14T02:54:18.608Z,6.97
2022-09-14T02:59:12.341Z,5.57
2022-09-14T03:04:05.566Z,3.83
2022-09-14T03:08:59.570Z,4.55
2022-09-14T03:13:53.393Z,4.30
2022-09-14T03:18:48.011Z,5.32
2022-09-14T03:23:43.294Z,5.25
2022-09-14T03:28:37.076Z,4.97
2022-09-14T03:33:30.159Z,5.55
2022-09-14T03:38:25.072Z,3.63
2022-09-14T03:43:22.488Z,5.63
2022-09-14T03:48:16.602Z,6.07
2022-09-14T03:53:10.839Z,3.75
2022-09-14T03:58:04.505Z,4.72
2022-09-14T04:03:01.218Z,5.53
2022-09-14T04:07:54.685Z,6.45
2022-09-14T04:12:48.405Z,5.75
2022-09-14T04:17:46.498Z,7.03
2022-09-14T04:22:39.328Z,5.20
2022-09-14T04:27:32.773Z,7.25
2022-09-14T04:32:29.650Z,5.72
2022-09-14T04:37:30.964Z,9.05
2022-09-14T04:42:25.071Z,10.70
2022-09-14T04:47:18.335Z,6.40
2022-09-14T04:52:12.377Z,3.88
2022-09-14T04:57:06.424Z,9.40
2022-09-14T05:01:59.180Z,5.35
2022-09-14T05:06:53.369Z,6.70
2022-09-14T05:11:47.094Z,6.13
2022-09-14T05:16:41.002Z,12.10
2022-09-14T05:21:37.545Z,4.22
2022-09-14T05:26:33.295Z,4.32
2022-09-14T05:31:28.516Z,9.30
2022-09-14T05:36:23.032Z,9.32
2022-09-14T05:41:16.603Z,6.65
2022-09-14T05:46:15.513Z,14.68
2022-09-14T05:51:12.852Z,8.40
2022-09-14T05:56:18.552Z,23.20
2022-09-14T06:01:21.074Z,10.90
2022-09-14T06:06:17.350Z,20.23
2022-09-14T06:11:13.029Z,14.80
2022-09-14T06:16:10.293Z,17.23
2022-09-14T06:21:05.300Z,23.40
2022-09-14T06:26:04.392Z,14.23
2022-09-14T06:30:58.617Z,18.40
2022-09-14T06:36:02.675Z,28.67
2022-09-14T06:40:59.270Z,23.85
2022-09-14T06:46:06.739Z,24.75
2022-09-14T06:51:00.811Z,21.70
2022-09-14T06:55:54.314Z,13.63
2022-09-14T07:00:48.387Z,11.45
2022-09-14T07:05:41.812Z,13.70
2022-09-14T07:10:36.042Z,9.18
2022-09-14T07:15:29.879Z,10.98
2022-09-14T07:20:27.317Z,13.55
2022-09-14T07:25:21.115Z,7.07
2022-09-14T07:30:14.520Z,8.23
2022-09-14T07:35:10.211Z,6.13
2022-09-14T07:40:04.148Z,8.85
2022-09-14T07:44:58.902Z,7.93
2022-09-14T07:49:53.760Z,3.78
2022-09-14T07:54:47.824Z,6.45
2022-09-14T07:59:41.896Z,9.05
2022-09-14T08:04:36.760Z,7.07
2022-09-14T08:09:30.936Z,7.60
2022-09-14T08:14:24.179Z,9.20
2022-09-14T08:19:19.123Z,6.78
2022-09-14T08:24:17.570Z,6.97
2022-09-14T08:29:10.659Z,2.60
2022-09-14T08:34:04.564Z,6.68
2022-09-14T08:38:57.875Z,9.23
2022-09-14T08:43:51.923Z,3.78
2022-09-14T08:48:49.000Z,5.03
2022-09-14T08:53:43.608Z,5.03
2022-09-14T08:58:47.602Z,5.40
2022-09-14T09:04:02.363Z,6.25
2022-09-14T09:09:09.719Z,7.60
2022-09-14T09:14:14.070Z,5.70
2022-09-14T09:19:17.080Z,4.07
2022-09-14T09:24:34.126Z,7.05
2022-09-14T09:29:30.223Z,6.60
2022-09-14T09:34:37.271Z,4.65
2022-09-14T09:39:40.500Z,4.93
2022-09-14T09:45:04.119Z,5.53
2022-09-14T09:50:02.550Z,3.45
2022-09-14T09:54:57.737Z,7.90
2022-09-14T09:59:55.091Z,3.30
2022-09-14T10:05:04.774Z,3.05
2022-09-14T10:15:32.651Z,6.07
2022-09-14T10:20:27.962Z,7.07
2022-09-14T10:25:20.399Z,5.75
2022-09-14T10:30:15.795Z,9.05
2022-09-14T10:35:17.945Z,7.82
2022-09-14T10:40:18.763Z,6.20
2022-09-14T10:45:19.227Z,6.25
2022-09-14T10:50:36.884Z,9.52
2022-09-14T10:55:34.515Z,5.05
2022-09-14T11:00:32.485Z,6.65
2022-09-14T11:05:31.103Z,6.35
2022-09-14T11:10:34.426Z,6.22
2022-09-14T11:15:47.242Z,7.18
2022-09-14T11:21:14.487Z,8.68
2022-09-14T11:26:17.747Z,7.45
2022-09-14T11:32:04.449Z,5.82
2022-09-14T11:37:30.552Z,12.27
2022-09-14T11:42:46.412Z,8.52
2022-09-14T11:48:41.737Z,10.55
2022-09-14T11:53:35.344Z,8.20
2022-09-14T11:58:49.122Z,7.22
2022-09-14T12:04:23.444Z,6.47
2022-09-14T12:09:24.948Z,4.97
2022-09-14T12:14:31.078Z,13.85
2022-09-14T12:19:28.018Z,5.28
2022-09-14T12:24:24.404Z,10.23
2022-09-14T12:29:34.910Z,4.97
2022-09-14T12:34:33.777Z,10.27
2022-09-14T12:39:37.400Z,4.50
2022-09-14T12:44:56.564Z,6.00
2022-09-14T12:50:09.479Z,4.32
2022-09-14T12:55:33.546Z,7.90
2022-09-14T13:01:07.623Z,4.55
2022-09-14T13:06:03.263Z,4.70
2022-09-14T13:11:24.131Z,8.30
2022-09-14T13:16:44.539Z,6.53
2022-09-14T13:21:48.888Z,8.30
2022-09-14T13:26:44.380Z,11.63
2022-09-14T13:31:39.996Z,5.15
2022-09-14T13:37:14.963Z,5.68
2022-09-14T13:42:09.594Z,5.45
2022-09-14T13:47:06.004Z,10.00
2022-09-14T13:52:19.765Z,7.68
2022-09-14T13:57:22.160Z,8.15
2022-09-14T14:02:16.558Z,8.48
2022-09-14T14:07:22.909Z,7.90
2022-09-14T14:12:32.396Z,7.28
2022-09-14T14:17:37.112Z,10.60
2022-09-14T14:22:33.717Z,10.00
2022-09-14T14:27:44.410Z,13.68
2022-09-14T14:32:44.979Z,11.38
2022-09-14T14:37:38.945Z,14.32
2022-09-14T14:42:33.042Z,8.15
2022-09-14T14:47:28.503Z,12.98
2022-09-14T14:52:22.515Z,7.75
2022-09-14T14:57:16.633Z,11.13
2022-09-14T15:02:10.517Z,7.70
2022-09-14T15:07:04.790Z,7.53
2022-09-14T15:11:57.493Z,10.48
2022-09-14T15:16:56.424Z,6.70
2022-09-14T15:21:50.701Z,6.45
2022-09-14T15:26:44.963Z,6.65
2022-09-14T15:31:38.403Z,7.40
2022-09-14T15:36:48.259Z,12.10
2022-09-14T15:41:42.080Z,14.52
2022-09-14T15:46:35.624Z,11.57
2022-09-14T15:51:29.806Z,8.85
2022-09-14T15:56:23.862Z,14.05
2022-09-14T16:01:19.042Z,6.40
2022-09-14T16:06:16.081Z,6.57
2022-09-14T16:11:09.567Z,9.70
2022-09-14T16:16:16.163Z,5.13
2022-09-14T16:21:15.165Z,5.63
2022-09-14T16:26:11.163Z,14.38
2022-09-14T16:31:24.747Z,6.82
2022-09-14T16:36:20.515Z,8.18
2022-09-14T16:41:16.012Z,6.47
2022-09-14T16:46:29.391Z,10.38
2022-09-14T16:51:25.886Z,6.72
2022-09-14T16:56:21.901Z,7.00
2022-09-14T17:01:39.864Z,5.85
2022-09-14T17:06:33.553Z,4.93
2022-09-14T17:11:29.905Z,8.00
2022-09-14T17:16:24.564Z,4.97
2022-09-14T17:21:39.315Z,3.75
2022-09-14T17:26:32.940Z,8.25
2022-09-14T17:31:29.651Z,10.98
2022-09-14T17:36:23.787Z,5.68
2022-09-14T17:41:19.235Z,6.65
2022-09-14T17:46:15.170Z,5.55
2022-09-14T17:51:15.257Z,8.05
2022-09-14T17:56:11.061Z,6.63
2022-09-14T18:01:22.421Z,4.88
2022-09-14T18:06:16.215Z,6.30
2022-09-14T18:11:15.214Z,9.13
2022-09-14T18:16:08.468Z,5.55
2022-09-14T18:21:02.383Z,5.93
2022-09-14T18:25:56.020Z,7.78
2022-09-14T18:30:49.113Z,5.45
2022-09-14T18:35:43.480Z,7.68
2022-09-14T18:40:38.884Z,7.53
2022-09-14T18:45:34.654Z,7.72
2022-09-14T18:50:33.141Z,5.30
2022-09-14T18:55:26.185Z,9.45
2022-09-14T19:00:20.348Z,10.68
2022-09-14T19:05:14.756Z,17.50
2022-09-14T19:10:11.786Z,15.07
2022-09-14T19:15:06.346Z,10.98
2022-09-14T19:19:59.835Z,13.90
2022-09-14T19:24:53.771Z,11.30
2022-09-14T19:29:47.696Z,10.98
2022-09-14T19:34:41.240Z,13.32
2022-09-14T19:39:34.642Z,13.95
2022-09-14T19:44:29.261Z,14.82
2022-09-14T19:49:25.404Z,20.52
2022-09-14T19:54:20.413Z,14.98
2022-09-14T19:59:13.082Z,10.52
2022-09-14T20:04:09.526Z,14.23
2022-09-14T20:09:14.236Z,17.33
2022-09-14T20:14:10.806Z,15.98
2022-09-14T20:19:08.793Z,15.00
2022-09-14T20:24:15.705Z,18.25
2022-09-14T20:29:10.361Z,10.77
2022-09-14T20:34:05.589Z,8.35
2022-09-14T20:39:00.406Z,17.08
2022-09-14T20:43:55.420Z,16.20
2022-09-14T20:48:50.836Z,14.23
2022-09-14T20:53:44.945Z,9.75
2022-09-14T20:58:38.680Z,19.13
2022-09-14T21:03:32.687Z,8.40
2022-09-14T21:08:26.176Z,20.80
2022-09-14T21:13:20.122Z,10.65
2022-09-14T21:18:20.753Z,17.02
2022-09-14T21:23:14.155Z,12.05
2022-09-14T21:28:08.019Z,8.43
2022-09-14T21:33:02.483Z,11.57
2022-09-14T21:37:56.573Z,11.57
2022-09-14T21:42:50.900Z,11.07
2022-09-14T21:47:43.915Z,17.48
2022-09-14T21:52:41.717Z,9.00
2022-09-14T21:57:35.098Z,10.52
2022-09-14T22:02:28.609Z,7.60
2022-09-14T22:07:22.805Z,10.30
2022-09-14T22:12:22.295Z,8.40
2022-09-14T22:17:15.766Z,10.52
2022-09-14T22:22:09.268Z,6.35
2022-09-14T22:27:03.264Z,10.05
2022-09-14T22:31:57.331Z,7.07
2022-09-14T22:36:54.905Z,6.25
2022-09-14T22:41:49.176Z,6.68
2022-09-14T22:46:43.518Z,7.80
2022-09-14T22:51:37.006Z,10.80
2022-09-14T22:56:36.210Z,8.75
2022-09-14T23:01:32.931Z,11.15
2022-09-14T23:06:34.062Z,6.32
2022-09-14T23:11:27.260Z,8.27
2022-09-14T23:16:23.913Z,7.25
2022-09-14T23:21:17.977Z,6.93
2022-09-14T23:26:12.466Z,7.13
2022-09-14T23:31:07.196Z,8.80
2022-09-14T23:36:00.425Z,6.80
2022-09-14T23:40:54.015Z,11.20
2022-09-14T23:45:47.865Z,7.13
2022-09-14T23:50:41.780Z,10.50
2022-09-14T23:55:35.333Z,4.72
